Time;durP1;ratioP1;P1;durP2;ratioP2;P2;SDS_P1;SDS_P2;PMS_P1;PMS_P2;Temp;Humidity;BMP_temperature;BMP_pressure;BME280_temperature;BME280_humidity;BME280_pressure;Samples;Min_cycle;Max_cycle;Signal;HPM_P1;HPM_P2
2023/07/23 00:00:53;;;;;;;5.95;3.70;;;;;;;;;;5032811;28;20069;-76
2023/07/23 00:03:20;;;;;;;5.07;3.90;;;;;;;;;;5032564;28;20049;-77
2023/07/23 00:05:51;;;;;;;5.65;3.80;;;;;;;;;;5032648;28;20054;-78
2023/07/23 00:08:17;;;;;;;5.15;3.80;;;;;;;;;;5014806;28;20437;-76
2023/07/23 00:10:44;;;;;;;5.10;3.58;;;;;;;;;;5031944;28;20053;-76
2023/07/23 00:13:11;;;;;;;7.47;3.28;;;;;;;;;;5032356;28;20060;-76
2023/07/23 00:15:38;;;;;;;6.07;3.60;;;;;;;;;;5032421;28;20548;-77
2023/07/23 00:18:05;;;;;;;5.53;3.42;;;;;;;;;;5032041;28;20061;-76
2023/07/23 00:20:31;;;;;;;3.63;3.20;;;;;;;;;;5032588;28;20058;-76
2023/07/23 00:23:00;;;;;;;5.07;3.58;;;;;;;;;;5032185;28;20398;-76
2023/07/23 00:25:28;;;;;;;4.68;3.42;;;;;;;;;;5032223;28;20046;-77
2023/07/23 00:27:55;;;;;;;6.38;3.90;;;;;;;;;;5032363;28;20410;-76
2023/07/23 00:30:22;;;;;;;5.55;3.40;;;;;;;;;;5032550;28;20050;-77
2023/07/23 00:32:49;;;;;;;6.55;4.03;;;;;;;;;;5032452;28;20083;-77
2023/07/23 00:35:16;;;;;;;4.03;3.35;;;;;;;;;;5032349;28;20053;-77
2023/07/23 00:37:43;;;;;;;5.30;3.78;;;;;;;;;;5032148;28;20060;-77
2023/07/23 00:40:12;;;;;;;6.55;3.83;;;;;;;;;;5031960;28;20076;-77
2023/07/23 00:42:39;;;;;;;6.25;4.05;;;;;;;;;;5032294;28;20052;-77
2023/07/23 00:45:07;;;;;;;5.88;4.38;;;;;;;;;;5032173;28;20061;-77
2023/07/23 00:47:36;;;;;;;5.25;3.58;;;;;;;;;;5032020;28;20057;-77
2023/07/23 00:50:03;;;;;;;5.40;4.25;;;;;;;;;;5032123;28;20061;-77
2023/07/23 00:52:31;;;;;;;6.40;3.47;;;;;;;;;;5031757;28;20065;-77
2023/07/23 00:54:58;;;;;;;5.78;3.80;;;;;;;;;;5031992;28;20057;-77
2023/07/23 00:57:27;;;;;;;7.22;4.30;;;;;;;;;;5031902;28;20064;-77
2023/07/23 00:59:56;;;;;;;4.90;4.03;;;;;;;;;;5032296;28;20053;-77
2023/07/23 01:02:23;;;;;;;5.13;4.07;;;;;;;;;;5032074;28;20057;-78
2023/07/23 01:04:50;;;;;;;5.20;3.78;;;;;;;;;;5032018;28;20054;-78
2023/07/23 01:07:17;;;;;;;6.55;3.78;;;;;;;;;;5035480;28;20049;-78
2023/07/23 01:09:44;;;;;;;4.95;4.07;;;;;;;;;;5035363;28;20076;-78
2023/07/23 01:12:11;;;;;;;5.80;3.92;;;;;;;;;;5035339;28;20061;-78
2023/07/23 01:14:39;;;;;;;6.88;4.43;;;;;;;;;;5035191;28;20056;-78
2023/07/23 01:17:07;;;;;;;7.70;4.35;;;;;;;;;;5035633;28;20056;-78
2023/07/23 01:19:33;;;;;;;5.05;3.80;;;;;;;;;;5035393;28;20058;-78
2023/07/23 01:22:05;;;;;;;6.55;4.50;;;;;;;;;;5035363;28;20053;-78
2023/07/23 01:24:33;;;;;;;6.40;4.45;;;;;;;;;;5035311;28;20057;-78
2023/07/23 01:27:00;;;;;;;6.40;4.22;;;;;;;;;;5035049;28;20046;-78
2023/07/23 01:29:27;;;;;;;8.35;4.55;;;;;;;;;;5035156;28;20392;-78
2023/07/23 01:31:54;;;;;;;5.22;3.97;;;;;;;;;;5034698;28;20057;-78
2023/07/23 01:34:20;;;;;;;5.90;3.95;;;;;;;;;;5034811;28;20054;-78
2023/07/23 01:36:47;;;;;;;4.47;3.92;;;;;;;;;;5034766;28;20056;-78
2023/07/23 01:39:16;;;;;;;6.18;3.70;;;;;;;;;;5035184;28;20073;-78
2023/07/23 01:41:42;;;;;;;5.60;4.28;;;;;;;;;;5034646;28;20049;-78
2023/07/23 01:44:09;;;;;;;5.32;4.20;;;;;;;;;;5035072;28;20060;-78
2023/07/23 01:46:36;;;;;;;7.22;4.22;;;;;;;;;;5034566;28;20481;-78
2023/07/23 01:49:03;;;;;;;5.75;4.05;;;;;;;;;;5034041;28;20064;-78
2023/07/23 01:51:29;;;;;;;5.13;3.60;;;;;;;;;;5034690;28;20053;-77
2023/07/23 01:53:56;;;;;;;5.93;4.22;;;;;;;;;;5034423;28;20050;-78
2023/07/23 01:56:24;;;;;;;5.55;3.97;;;;;;;;;;5034106;28;20483;-78
2023/07/23 01:58:51;;;;;;;4.72;4.20;;;;;;;;;;5034495;28;20053;-78
2023/07/23 02:01:18;;;;;;;9.40;3.90;;;;;;;;;;5034361;28;20050;-78
2023/07/23 02:03:45;;;;;;;5.55;3.90;;;;;;;;;;5034612;28;20057;-78
2023/07/23 02:06:12;;;;;;;7.35;4.30;;;;;;;;;;5034173;28;20088;-78
2023/07/23 02:08:38;;;;;;;5.40;4.03;;;;;;;;;;5034188;28;20061;-77
2023/07/23 02:11:06;;;;;;;5.07;3.63;;;;;;;;;;5033992;28;20057;-78
2023/07/23 02:13:34;;;;;;;6.78;4.30;;;;;;;;;;5034387;28;20502;-78
2023/07/23 02:16:01;;;;;;;6.40;4.20;;;;;;;;;;5033414;28;20062;-78
2023/07/23 02:18:28;;;;;;;7.55;4.45;;;;;;;;;;5033219;28;20060;-78
2023/07/23 02:20:55;;;;;;;6.13;4.20;;;;;;;;;;5033955;28;20053;-78
2023/07/23 02:23:21;;;;;;;4.78;4.00;;;;;;;;;;5034029;28;20057;-77
2023/07/23 02:25:48;;;;;;;4.43;3.50;;;;;;;;;;5033683;28;20407;-77
2023/07/23 02:28:15;;;;;;;6.55;4.00;;;;;;;;;;5033760;28;20068;-77
2023/07/23 02:30:43;;;;;;;6.95;4.13;;;;;;;;;;5034051;28;20471;-76
2023/07/23 02:33:10;;;;;;;5.57;3.95;;;;;;;;;;5033806;28;20064;-76
2023/07/23 02:35:37;;;;;;;5.28;3.65;;;;;;;;;;5033880;28;20076;-78
2023/07/23 02:38:04;;;;;;;5.05;4.25;;;;;;;;;;5034230;28;20065;-77
2023/07/23 02:40:32;;;;;;;4.65;3.97;;;;;;;;;;5034127;28;20061;-78
2023/07/23 02:42:58;;;;;;;6.70;3.70;;;;;;;;;;5034020;28;20057;-78
2023/07/23 02:45:25;;;;;;;4.70;3.70;;;;;;;;;;5033571;28;20053;-78
2023/07/23 02:47:53;;;;;;;5.20;3.75;;;;;;;;;;5033097;28;20045;-78
2023/07/23 02:50:20;;;;;;;5.72;4.05;;;;;;;;;;5033692;28;20064;-78
2023/07/23 02:52:47;;;;;;;6.22;3.78;;;;;;;;;;5033252;28;20054;-78
2023/07/23 02:55:14;;;;;;;8.23;4.13;;;;;;;;;;5033208;28;20057;-78
2023/07/23 02:57:40;;;;;;;5.47;3.83;;;;;;;;;;5033574;28;20364;-78
2023/07/23 03:00:08;;;;;;;5.72;4.03;;;;;;;;;;5033511;28;20395;-78
2023/07/23 03:02:35;;;;;;;5.07;3.85;;;;;;;;;;5033616;28;20057;-78
2023/07/23 03:05:04;;;;;;;5.30;3.63;;;;;;;;;;5033406;28;20053;-78
2023/07/23 03:07:31;;;;;;;5.07;3.63;;;;;;;;;;5033767;28;20057;-78
2023/07/23 03:09:58;;;;;;;4.72;3.40;;;;;;;;;;5033208;28;20049;-78
2023/07/23 03:12:25;;;;;;;5.95;4.10;;;;;;;;;;5033393;28;20406;-78
2023/07/23 03:14:52;;;;;;;5.63;4.18;;;;;;;;;;5033017;28;20414;-78
2023/07/23 03:17:18;;;;;;;5.00;3.67;;;;;;;;;;5033161;28;20046;-77
2023/07/23 03:19:45;;;;;;;4.78;3.85;;;;;;;;;;5033250;28;20053;-78
2023/07/23 03:22:13;;;;;;;4.53;3.70;;;;;;;;;;5033195;28;20068;-78
2023/07/23 03:24:40;;;;;;;6.70;4.07;;;;;;;;;;5032703;28;20049;-78
2023/07/23 03:27:10;;;;;;;6.05;3.85;;;;;;;;;;5032852;28;20377;-78
2023/07/23 03:29:36;;;;;;;;;;;;;;;;;;5033150;28;20430;-77
2023/07/23 03:32:03;;;;;;;4.32;3.75;;;;;;;;;;5032995;28;19921;-78
2023/07/23 03:34:30;;;;;;;6.50;3.70;;;;;;;;;;5032646;28;20079;-78
2023/07/23 03:36:57;;;;;;;5.10;3.95;;;;;;;;;;5032922;28;20053;-78
2023/07/23 03:39:25;;;;;;;5.82;3.95;;;;;;;;;;5032939;28;20045;-78
2023/07/23 03:41:52;;;;;;;5.43;3.80;;;;;;;;;;5032660;28;20459;-77
2023/07/23 03:44:19;;;;;;;5.53;3.63;;;;;;;;;;5032558;28;20062;-78
2023/07/23 03:47:01;;;;;;;5.78;3.60;;;;;;;;;;5032708;28;20045;-78
2023/07/23 03:49:28;;;;;;;5.20;3.53;;;;;;;;;;5032747;28;20060;-78
2023/07/23 03:51:54;;;;;;;6.07;3.67;;;;;;;;;;5032754;28;20058;-78
2023/07/23 03:54:21;;;;;;;4.55;3.60;;;;;;;;;;5032780;28;20057;-78
2023/07/23 03:56:49;;;;;;;7.72;4.28;;;;;;;;;;5032532;28;20061;-77
2023/07/23 03:59:16;;;;;;;5.30;3.90;;;;;;;;;;5032423;28;20056;-78
2023/07/23 04:01:43;;;;;;;6.82;3.40;;;;;;;;;;5030824;28;20076;-78
2023/07/23 04:04:10;;;;;;;5.82;3.25;;;;;;;;;;5032124;28;20121;-77
2023/07/23 04:06:36;;;;;;;5.03;3.25;;;;;;;;;;5032419;28;20049;-78
2023/07/23 04:09:03;;;;;;;5.75;4.40;;;;;;;;;;5032564;28;20410;-78
2023/07/23 04:11:30;;;;;;;6.15;3.65;;;;;;;;;;5032461;28;20049;-78
2023/07/23 04:13:58;;;;;;;4.43;3.28;;;;;;;;;;5032623;28;20501;-78
2023/07/23 04:16:25;;;;;;;6.15;3.67;;;;;;;;;;5032245;28;20056;-77
2023/07/23 04:18:53;;;;;;;6.47;3.58;;;;;;;;;;5032695;28;20061;-78
2023/07/23 04:21:21;;;;;;;6.20;4.00;;;;;;;;;;5032047;28;20053;-77
2023/07/23 04:23:48;;;;;;;4.85;3.38;;;;;;;;;;5032132;28;20067;-78
2023/07/23 04:26:15;;;;;;;5.35;3.42;;;;;;;;;;5032047;28;20061;-78
2023/07/23 04:28:42;;;;;;;4.63;3.53;;;;;;;;;;5032267;28;20163;-78
2023/07/23 04:31:10;;;;;;;6.80;3.95;;;;;;;;;;5031450;28;20339;-77
2023/07/23 04:33:39;;;;;;;5.28;3.17;;;;;;;;;;5012732;28;20406;-78
2023/07/23 04:36:07;;;;;;;5.00;3.70;;;;;;;;;;5012442;28;20065;-78
2023/07/23 04:38:35;;;;;;;5.47;3.40;;;;;;;;;;5012054;28;20050;-78
2023/07/23 04:41:02;;;;;;;4.90;3.92;;;;;;;;;;5014183;28;20050;-78
2023/07/23 04:43:29;;;;;;;4.53;3.38;;;;;;;;;;5016178;28;20134;-78
2023/07/23 04:45:56;;;;;;;4.22;3.05;;;;;;;;;;5016440;28;20049;-78
2023/07/23 04:48:24;;;;;;;5.68;3.70;;;;;;;;;;5015159;28;20622;-78
2023/07/23 04:50:55;;;;;;;5.32;4.07;;;;;;;;;;5015683;28;20054;-78
2023/07/23 04:53:23;;;;;;;4.45;3.22;;;;;;;;;;5015602;28;20054;-78
2023/07/23 04:55:51;;;;;;;4.53;3.55;;;;;;;;;;5015827;28;20054;-78
2023/07/23 04:58:17;;;;;;;4.93;3.60;;;;;;;;;;5015559;28;20511;-78
2023/07/23 05:00:44;;;;;;;5.80;3.38;;;;;;;;;;5015342;28;20498;-78
2023/07/23 05:03:11;;;;;;;4.68;3.65;;;;;;;;;;5015998;28;20073;-78
2023/07/23 05:05:40;;;;;;;6.35;3.53;;;;;;;;;;5015273;28;20050;-78
2023/07/23 05:08:07;;;;;;;4.80;3.23;;;;;;;;;;5015918;28;20101;-78
2023/07/23 05:10:34;;;;;;;5.28;3.38;;;;;;;;;;5015367;28;20054;-78
2023/07/23 05:13:00;;;;;;;3.88;3.28;;;;;;;;;;5015390;28;20058;-78
2023/07/23 05:15:27;;;;;;;4.72;3.17;;;;;;;;;;5015736;28;20057;-78
2023/07/23 05:17:54;;;;;;;5.15;3.25;;;;;;;;;;5015557;28;20395;-77
2023/07/23 05:20:21;;;;;;;6.43;3.42;;;;;;;;;;5015164;28;20046;-78
2023/07/23 05:22:49;;;;;;;5.43;3.15;;;;;;;;;;5015550;28;20476;-78
2023/07/23 05:25:18;;;;;;;4.53;3.58;;;;;;;;;;5015591;28;20454;-78
2023/07/23 05:27:45;;;;;;;;;;;;;;;;;;5016223;28;20050;-78
2023/07/23 05:30:13;;;;;;;4.07;3.40;;;;;;;;;;5015617;28;19940;-78
2023/07/23 05:32:43;;;;;;;5.30;3.10;;;;;;;;;;5028355;28;20062;-79
2023/07/23 05:35:11;;;;;;;4.40;3.17;;;;;;;;;;5035599;28;20053;-78
2023/07/23 05:37:38;;;;;;;4.97;3.80;;;;;;;;;;5035282;28;20072;-78
2023/07/23 05:40:08;;;;;;;4.75;2.92;;;;;;;;;;5035116;28;20464;-78
2023/07/23 05:42:34;;;;;;;4.70;3.30;;;;;;;;;;5035247;28;20418;-78
2023/07/23 05:45:03;;;;;;;6.07;3.20;;;;;;;;;;5034543;28;20072;-79
2023/07/23 05:47:29;;;;;;;4.95;3.22;;;;;;;;;;5034760;28;20059;-78
2023/07/23 05:49:56;;;;;;;6.18;3.20;;;;;;;;;;5035026;28;20060;-78
2023/07/23 05:52:24;;;;;;;6.60;3.38;;;;;;;;;;5034570;28;20382;-79
2023/07/23 05:54:50;;;;;;;5.43;3.08;;;;;;;;;;5033909;28;20418;-78
2023/07/23 05:57:19;;;;;;;4.75;3.22;;;;;;;;;;5034675;28;20056;-77
2023/07/23 05:59:46;;;;;;;4.45;3.05;;;;;;;;;;5034564;28;20387;-78
2023/07/23 06:02:15;;;;;;;5.13;3.65;;;;;;;;;;5034211;28;20125;-77
2023/07/23 06:04:41;;;;;;;5.55;3.25;;;;;;;;;;5034274;28;20049;-78
2023/07/23 06:07:08;;;;;;;4.30;3.13;;;;;;;;;;5034258;28;20060;-79
2023/07/23 06:09:35;;;;;;;4.07;2.90;;;;;;;;;;5034256;28;20056;-79
2023/07/23 06:12:02;;;;;;;5.82;3.22;;;;;;;;;;5034262;28;20060;-79
2023/07/23 06:14:30;;;;;;;4.68;2.90;;;;;;;;;;5034183;28;20049;-78
2023/07/23 06:16:57;;;;;;;3.22;2.75;;;;;;;;;;5033852;28;20049;-79
2023/07/23 06:19:23;;;;;;;5.20;2.78;;;;;;;;;;5034540;28;20053;-78
2023/07/23 06:21:53;;;;;;;4.05;3.28;;;;;;;;;;5034207;28;20053;-79
2023/07/23 06:24:20;;;;;;;5.32;3.13;;;;;;;;;;5033788;28;20064;-80
2023/07/23 06:26:47;;;;;;;5.47;3.28;;;;;;;;;;5034009;28;20053;-79
2023/07/23 06:29:16;;;;;;;5.30;3.20;;;;;;;;;;5034059;28;20045;-79
2023/07/23 06:31:43;;;;;;;;;;;;;;;;;;5029295;28;20050;-79
2023/07/23 06:34:11;;;;;;;4.43;2.92;;;;;;;;;;5014078;28;19921;-79
2023/07/23 06:36:38;;;;;;;5.13;3.22;;;;;;;;;;5013717;28;20054;-79
2023/07/23 06:39:05;;;;;;;3.42;2.97;;;;;;;;;;5013742;28;20129;-79
2023/07/23 06:41:32;;;;;;;3.92;2.90;;;;;;;;;;5012446;28;20054;-79
2023/07/23 06:43:58;;;;;;;6.25;3.80;;;;;;;;;;5014054;28;20064;-79
2023/07/23 06:46:25;;;;;;;3.75;3.00;;;;;;;;;;5013770;28;20072;-79
2023/07/23 06:48:53;;;;;;;3.90;3.10;;;;;;;;;;5013331;28;20057;-78
2023/07/23 06:51:21;;;;;;;3.53;2.83;;;;;;;;;;5013331;28;20054;-78
2023/07/23 06:53:48;;;;;;;4.60;3.17;;;;;;;;;;5012929;28;20065;-78
2023/07/23 06:56:16;;;;;;;3.90;2.92;;;;;;;;;;5013571;28;20496;-78
2023/07/23 06:58:44;;;;;;;5.55;3.17;;;;;;;;;;5013330;28;20061;-79
2023/07/23 07:01:11;;;;;;;4.80;2.88;;;;;;;;;;5013610;28;20463;-78
2023/07/23 07:03:38;;;;;;;4.35;2.50;;;;;;;;;;5012935;28;20049;-79
2023/07/23 07:06:05;;;;;;;4.93;2.60;;;;;;;;;;5013331;28;20058;-79
2023/07/23 07:08:33;;;;;;;5.97;2.60;;;;;;;;;;5013554;28;20050;-78
2023/07/23 07:11:01;;;;;;;4.28;2.70;;;;;;;;;;5012733;28;20057;-78
2023/07/23 07:13:27;;;;;;;4.10;2.85;;;;;;;;;;5013005;28;20054;-78
2023/07/23 07:15:54;;;;;;;4.18;2.60;;;;;;;;;;5012774;28;20054;-78
2023/07/23 07:18:21;;;;;;;6.47;2.70;;;;;;;;;;5012861;28;20157;-78
2023/07/23 07:20:54;;;;;;;3.88;2.28;;;;;;;;;;5013017;28;20076;-78
2023/07/23 07:23:21;;;;;;;4.53;3.00;;;;;;;;;;5012589;28;20058;-77
2023/07/23 07:25:49;;;;;;;6.35;2.75;;;;;;;;;;4995665;28;20053;-77
2023/07/23 07:28:16;;;;;;;3.65;2.63;;;;;;;;;;5012913;28;20050;-77
2023/07/23 07:30:43;;;;;;;7.05;2.83;;;;;;;;;;5013106;28;20054;-77
2023/07/23 07:33:12;;;;;;;3.72;2.40;;;;;;;;;;5031896;28;20053;-78
2023/07/23 07:35:39;;;;;;;3.63;2.33;;;;;;;;;;5034517;28;20053;-76
2023/07/23 07:38:07;;;;;;;3.88;2.47;;;;;;;;;;5033356;28;20060;-79
2023/07/23 07:40:38;;;;;;;4.18;2.35;;;;;;;;;;5033466;28;20053;-80
2023/07/23 07:43:06;;;;;;;4.50;2.50;;;;;;;;;;5034087;28;20057;-78
2023/07/23 07:45:33;;;;;;;4.72;2.17;;;;;;;;;;5032678;28;20057;-78
2023/07/23 07:48:00;;;;;;;4.05;2.70;;;;;;;;;;5032402;28;20053;-78
2023/07/23 07:50:27;;;;;;;3.22;2.53;;;;;;;;;;5032373;28;20061;-79
2023/07/23 07:52:53;;;;;;;4.60;2.22;;;;;;;;;;5032753;28;20061;-79
2023/07/23 07:55:20;;;;;;;3.28;2.20;;;;;;;;;;5032575;28;20045;-79
2023/07/23 07:57:47;;;;;;;5.65;2.30;;;;;;;;;;5032993;28;20053;-79
2023/07/23 08:00:16;;;;;;;4.05;2.47;;;;;;;;;;5032151;28;20053;-79
2023/07/23 08:02:43;;;;;;;4.78;2.63;;;;;;;;;;5032576;28;20061;-79
2023/07/23 08:05:10;;;;;;;3.80;2.42;;;;;;;;;;5032534;28;20053;-80
2023/07/23 08:07:37;;;;;;;3.33;2.30;;;;;;;;;;5032799;28;20076;-79
2023/07/23 08:10:05;;;;;;;7.22;2.67;;;;;;;;;;5032598;28;20064;-79
2023/07/23 08:12:31;;;;;;;3.70;2.33;;;;;;;;;;5032355;28;20073;-79
2023/07/23 08:14:59;;;;;;;4.65;2.65;;;;;;;;;;5033845;28;20052;-79
2023/07/23 08:17:28;;;;;;;4.10;2.40;;;;;;;;;;5036382;28;20116;-79
2023/07/23 08:19:55;;;;;;;3.00;2.42;;;;;;;;;;5036352;28;20398;-79
2023/07/23 08:22:22;;;;;;;4.45;2.90;;;;;;;;;;5036513;28;20057;-79
2023/07/23 08:24:49;;;;;;;3.20;2.45;;;;;;;;;;5035909;28;20053;-79
2023/07/23 08:27:18;;;;;;;6.35;3.03;;;;;;;;;;5036246;28;20057;-79
2023/07/23 08:29:46;;;;;;;4.35;2.28;;;;;;;;;;5036278;28;20057;-79
2023/07/23 08:32:13;;;;;;;2.70;2.42;;;;;;;;;;5027415;28;20057;-79
2023/07/23 08:34:41;;;;;;;4.10;2.45;;;;;;;;;;5016129;28;20073;-79
2023/07/23 08:37:09;;;;;;;3.05;2.58;;;;;;;;;;5016238;28;20054;-79
2023/07/23 08:39:36;;;;;;;3.40;2.13;;;;;;;;;;5015500;28;20411;-79
2023/07/23 08:42:13;;;;;;;3.30;2.30;;;;;;;;;;5016364;28;20065;-80
2023/07/23 08:45:01;;;;;;;2.75;2.10;;;;;;;;;;5015911;28;20065;-79
2023/07/23 08:47:28;;;;;;;3.50;1.92;;;;;;;;;;4998504;28;20061;-79
2023/07/23 08:49:57;;;;;;;6.38;2.60;;;;;;;;;;5016141;28;20073;-78
2023/07/23 08:52:24;;;;;;;4.25;2.60;;;;;;;;;;5015668;28;20054;-79
2023/07/23 08:54:51;;;;;;;3.38;2.30;;;;;;;;;;5015419;28;20050;-78
2023/07/23 08:57:20;;;;;;;3.55;2.20;;;;;;;;;;5015783;28;20054;-79
2023/07/23 08:59:47;;;;;;;4.80;1.98;;;;;;;;;;5015531;28;20050;-78
2023/07/23 09:02:15;;;;;;;4.47;2.10;;;;;;;;;;5015639;28;20061;-79
2023/07/23 09:04:41;;;;;;;3.67;2.30;;;;;;;;;;5015546;28;20050;-79
2023/07/23 09:07:10;;;;;;;6.35;2.15;;;;;;;;;;5015980;28;20057;-80
2023/07/23 09:09:37;;;;;;;2.83;1.67;;;;;;;;;;5015694;28;20054;-79
2023/07/23 09:12:04;;;;;;;2.80;1.75;;;;;;;;;;5015581;28;20072;-79
2023/07/23 09:14:39;;;;;;;2.78;1.98;;;;;;;;;;5015118;28;20134;-79
2023/07/23 09:17:15;;;;;;;2.58;2.15;;;;;;;;;;5015541;28;20049;-79
2023/07/23 09:19:42;;;;;;;3.03;1.90;;;;;;;;;;5015364;28;20502;-79
2023/07/23 09:22:11;;;;;;;3.90;2.00;;;;;;;;;;5015370;28;20058;-79
2023/07/23 09:24:40;;;;;;;3.30;2.13;;;;;;;;;;5014997;28;20057;-79
2023/07/23 09:27:09;;;;;;;3.53;1.80;;;;;;;;;;5014548;28;20081;-79
2023/07/23 09:29:36;;;;;;;3.20;2.03;;;;;;;;;;5014890;28;20053;-78
2023/07/23 09:32:04;;;;;;;4.78;2.13;;;;;;;;;;5022900;28;20056;-79
2023/07/23 09:34:30;;;;;;;2.83;2.05;;;;;;;;;;5034809;28;20057;-79
2023/07/23 09:36:57;;;;;;;4.63;2.20;;;;;;;;;;5035268;28;20072;-79
2023/07/23 09:39:27;;;;;;;3.15;2.28;;;;;;;;;;5034549;28;20054;-78
2023/07/23 09:41:56;;;;;;;4.22;2.30;;;;;;;;;;5034748;28;20064;-79
2023/07/23 09:44:23;;;;;;;;;;;;;;;;;;5035196;28;20065;-79
2023/07/23 09:46:49;;;;;;;3.35;2.20;;;;;;;;;;5035132;28;19921;-80
2023/07/23 09:49:23;;;;;;;4.50;2.53;;;;;;;;;;5034384;28;20076;-78
2023/07/23 09:51:51;;;;;;;3.30;2.50;;;;;;;;;;5034670;28;20060;-79
2023/07/23 09:54:18;;;;;;;6.07;2.47;;;;;;;;;;5034314;28;20057;-79
2023/07/23 09:56:47;;;;;;;2.53;2.10;;;;;;;;;;5034431;28;20060;-79
2023/07/23 09:59:14;;;;;;;3.80;2.15;;;;;;;;;;5034557;28;20061;-79
2023/07/23 10:01:41;;;;;;;4.20;2.45;;;;;;;;;;5034388;28;20048;-78
2023/07/23 10:04:10;;;;;;;5.47;2.05;;;;;;;;;;5034044;28;20053;-79
2023/07/23 10:06:37;;;;;;;3.50;2.33;;;;;;;;;;5034439;28;20064;-79
2023/07/23 10:09:04;;;;;;;4.32;2.30;;;;;;;;;;5034351;28;20061;-78
2023/07/23 10:11:31;;;;;;;2.85;2.30;;;;;;;;;;5034089;28;20403;-79
2023/07/23 10:14:02;;;;;;;3.63;2.47;;;;;;;;;;5034137;28;20049;-79
2023/07/23 10:16:29;;;;;;;3.28;2.28;;;;;;;;;;5034261;28;20060;-78
2023/07/23 10:18:57;;;;;;;3.15;2.10;;;;;;;;;;5034259;28;20092;-79
2023/07/23 10:21:24;;;;;;;3.10;2.08;;;;;;;;;;5034326;28;20057;-78
2023/07/23 10:23:55;;;;;;;3.65;2.47;;;;;;;;;;5033804;28;20391;-78
2023/07/23 10:26:23;;;;;;;3.13;1.98;;;;;;;;;;5033961;28;20371;-78
2023/07/23 10:28:50;;;;;;;3.47;2.42;;;;;;;;;;5033859;28;20060;-78
2023/07/23 10:31:23;;;;;;;18.60;2.90;;;;;;;;;;5034000;28;20049;-78
2023/07/23 10:33:51;;;;;;;3.45;2.50;;;;;;;;;;5033597;28;20064;-79
2023/07/23 10:36:18;;;;;;;3.00;2.25;;;;;;;;;;5033954;28;20049;-79
2023/07/23 10:38:45;;;;;;;3.90;2.60;;;;;;;;;;5032563;28;20053;-79
2023/07/23 10:41:12;;;;;;;3.95;2.67;;;;;;;;;;5033790;28;20065;-79
2023/07/23 10:43:39;;;;;;;3.50;2.30;;;;;;;;;;5033697;28;20060;-79
2023/07/23 10:46:09;;;;;;;4.88;2.78;;;;;;;;;;5033777;28;20076;-79
2023/07/23 10:48:35;;;;;;;;;;;;;;;;;;5033309;28;20065;-79
2023/07/23 10:51:03;;;;;;;4.38;2.40;;;;;;;;;;5033547;28;19944;-79
2023/07/23 10:53:31;;;;;;;4.68;2.55;;;;;;;;;;5033533;28;20049;-79
2023/07/23 10:55:59;;;;;;;3.42;2.20;;;;;;;;;;5033212;28;20427;-79
2023/07/23 10:58:27;;;;;;;3.55;2.22;;;;;;;;;;5033383;28;20073;-79
2023/07/23 11:00:54;;;;;;;3.15;2.00;;;;;;;;;;5033014;28;20060;-79
2023/07/23 11:03:21;;;;;;;3.03;2.30;;;;;;;;;;5033211;28;20064;-79
2023/07/23 11:05:48;;;;;;;4.78;2.67;;;;;;;;;;5033149;28;20061;-79
2023/07/23 11:08:17;;;;;;;3.45;2.40;;;;;;;;;;5032807;28;20053;-79
2023/07/23 11:10:48;;;;;;;3.78;2.60;;;;;;;;;;5033039;28;20068;-79
2023/07/23 11:13:15;;;;;;;4.50;2.30;;;;;;;;;;5032830;28;20103;-79
2023/07/23 11:15:42;;;;;;;2.67;2.20;;;;;;;;;;5033168;28;20056;-79
2023/07/23 11:18:09;;;;;;;4.05;2.50;;;;;;;;;;5033157;28;20061;-79
2023/07/23 11:20:36;;;;;;;4.50;2.40;;;;;;;;;;5032766;28;20054;-79
2023/07/23 11:23:05;;;;;;;3.33;2.10;;;;;;;;;;5032830;28;20411;-79
2023/07/23 11:25:33;;;;;;;4.10;2.28;;;;;;;;;;5033113;28;20462;-79
2023/07/23 11:28:00;;;;;;;2.72;1.90;;;;;;;;;;5032461;28;20053;-79
2023/07/23 11:30:27;;;;;;;2.83;1.80;;;;;;;;;;5032800;28;20060;-79
2023/07/23 11:32:53;;;;;;;3.08;2.05;;;;;;;;;;5032783;28;20414;-79
2023/07/23 11:35:21;;;;;;;2.45;1.98;;;;;;;;;;5032716;28;20136;-79
2023/07/23 11:37:49;;;;;;;2.65;1.95;;;;;;;;;;5032779;28;20466;-79
2023/07/23 11:40:20;;;;;;;3.40;1.75;;;;;;;;;;5032292;28;20060;-79
2023/07/23 11:42:49;;;;;;;3.22;1.60;;;;;;;;;;5032585;28;20060;-79
2023/07/23 11:45:15;;;;;;;2.17;1.57;;;;;;;;;;5032595;28;20053;-79
2023/07/23 11:47:49;;;;;;;2.00;1.60;;;;;;;;;;5031948;28;20061;-79
2023/07/23 11:50:16;;;;;;;3.38;1.70;;;;;;;;;;5032146;28;20356;-79
2023/07/23 11:52:42;;;;;;;2.20;1.70;;;;;;;;;;5032423;28;20053;-79
2023/07/23 11:55:18;;;;;;;2.60;1.55;;;;;;;;;;5032434;28;20057;-79
2023/07/23 11:57:45;;;;;;;2.08;1.45;;;;;;;;;;5032724;28;20061;-78
2023/07/23 12:00:14;;;;;;;2.75;1.63;;;;;;;;;;5032045;28;20052;-79
2023/07/23 12:02:41;;;;;;;2.42;1.58;;;;;;;;;;5032401;28;20380;-79
2023/07/23 12:05:09;;;;;;;2.25;1.50;;;;;;;;;;5032029;28;20053;-79
2023/07/23 12:07:36;;;;;;;2.10;1.55;;;;;;;;;;5032721;28;20068;-78
2023/07/23 12:10:03;;;;;;;2.35;1.50;;;;;;;;;;5032134;28;20077;-78
2023/07/23 12:12:30;;;;;;;2.22;1.80;;;;;;;;;;5032047;28;20053;-78
2023/07/23 12:15:04;;;;;;;1.98;1.60;;;;;;;;;;5032192;28;20065;-79
2023/07/23 12:17:32;;;;;;;2.42;1.83;;;;;;;;;;5031946;28;20058;-79
2023/07/23 12:19:59;;;;;;;2.28;1.92;;;;;;;;;;5032460;28;20387;-79
2023/07/23 12:22:30;;;;;;;2.10;1.70;;;;;;;;;;5032588;28;20057;-79
2023/07/23 12:24:57;;;;;;;3.35;1.63;;;;;;;;;;5032606;28;20054;-79
2023/07/23 12:27:23;;;;;;;2.53;2.00;;;;;;;;;;5032250;28;20455;-79
2023/07/23 12:29:50;;;;;;;2.60;2.00;;;;;;;;;;5031777;28;20064;-79
2023/07/23 12:32:19;;;;;;;3.33;1.83;;;;;;;;;;5031840;28;20054;-79
2023/07/23 12:34:48;;;;;;;2.97;2.00;;;;;;;;;;5032084;28;20061;-79
2023/07/23 12:37:16;;;;;;;2.17;1.55;;;;;;;;;;5031800;28;20057;-78
2023/07/23 12:39:43;;;;;;;1.92;1.60;;;;;;;;;;5032121;28;20053;-79
2023/07/23 12:42:09;;;;;;;2.58;1.70;;;;;;;;;;5032123;28;20398;-79
2023/07/23 12:44:36;;;;;;;2.30;1.80;;;;;;;;;;5032129;28;20125;-79
2023/07/23 12:47:03;;;;;;;2.63;1.75;;;;;;;;;;5032330;28;20050;-79
2023/07/23 12:49:30;;;;;;;2.00;1.60;;;;;;;;;;5031482;28;20049;-79
2023/07/23 12:51:59;;;;;;;1.98;1.45;;;;;;;;;;5032286;28;20049;-79
2023/07/23 12:54:26;;;;;;;3.47;1.40;;;;;;;;;;5032037;28;20211;-78
2023/07/23 12:56:53;;;;;;;1.95;1.60;;;;;;;;;;5032273;28;20053;-79
2023/07/23 12:59:20;;;;;;;1.83;1.25;;;;;;;;;;5031489;28;20049;-79
2023/07/23 13:01:47;;;;;;;2.20;1.67;;;;;;;;;;5033416;28;20053;-78
2023/07/23 13:04:14;;;;;;;1.88;1.20;;;;;;;;;;5035281;28;20053;-78
2023/07/23 13:06:41;;;;;;;3.25;1.70;;;;;;;;;;5035404;28;20061;-79
2023/07/23 13:09:09;;;;;;;2.55;1.65;;;;;;;;;;5035909;28;20475;-79
2023/07/23 13:11:36;;;;;;;2.35;1.70;;;;;;;;;;5035739;28;20064;-79
2023/07/23 13:14:03;;;;;;;2.47;1.77;;;;;;;;;;5035601;28;20057;-79
2023/07/23 13:16:30;;;;;;;2.38;1.52;;;;;;;;;;5035926;28;20061;-79
2023/07/23 13:18:57;;;;;;;2.33;1.60;;;;;;;;;;5035500;28;20493;-78
2023/07/23 13:21:26;;;;;;;2.50;1.60;;;;;;;;;;5035577;28;20049;-79
2023/07/23 13:23:52;;;;;;;2.42;1.65;;;;;;;;;;5035237;28;20053;-79
2023/07/23 13:26:21;;;;;;;2.20;1.73;;;;;;;;;;5035597;28;20482;-79
2023/07/23 13:28:48;;;;;;;2.17;1.98;;;;;;;;;;5035539;28;20399;-79
2023/07/23 13:31:18;;;;;;;2.00;1.80;;;;;;;;;;5033741;28;20414;-79
2023/07/23 13:33:45;;;;;;;1.90;1.70;;;;;;;;;;5015607;28;20431;-79
2023/07/23 13:36:12;;;;;;;2.10;1.70;;;;;;;;;;5015410;28;20061;-79
2023/07/23 13:38:39;;;;;;;2.20;1.80;;;;;;;;;;5015157;28;20057;-79
2023/07/23 13:41:06;;;;;;;3.05;1.85;;;;;;;;;;5015258;28;20046;-79
2023/07/23 13:43:34;;;;;;;2.60;1.98;;;;;;;;;;5014921;28;20058;-79
2023/07/23 13:46:01;;;;;;;2.00;1.60;;;;;;;;;;5015348;28;20057;-80
2023/07/23 13:48:28;;;;;;;2.30;1.70;;;;;;;;;;5014609;28;20080;-79
2023/07/23 13:50:55;;;;;;;2.55;1.73;;;;;;;;;;5014733;28;20053;-78
2023/07/23 13:53:21;;;;;;;2.85;1.75;;;;;;;;;;5014402;28;20410;-79
2023/07/23 13:55:48;;;;;;;2.72;1.80;;;;;;;;;;5014875;28;20406;-78
2023/07/23 13:58:15;;;;;;;2.63;1.70;;;;;;;;;;5014607;28;20399;-79
2023/07/23 14:00:43;;;;;;;2.65;1.95;;;;;;;;;;5014299;28;20425;-78
2023/07/23 14:03:10;;;;;;;2.50;1.70;;;;;;;;;;5014272;28;20053;-79
2023/07/23 14:05:37;;;;;;;2.58;1.77;;;;;;;;;;5014450;28;20491;-79
2023/07/23 14:08:04;;;;;;;2.78;1.50;;;;;;;;;;5014632;28;20065;-79
2023/07/23 14:10:31;;;;;;;2.95;1.90;;;;;;;;;;5014519;28;20423;-79
2023/07/23 14:12:58;;;;;;;2.40;1.70;;;;;;;;;;5014094;28;20463;-79
2023/07/23 14:15:25;;;;;;;3.22;1.70;;;;;;;;;;5014421;28;20050;-79
2023/07/23 14:17:53;;;;;;;3.50;1.45;;;;;;;;;;5014303;28;20419;-79
2023/07/23 14:20:20;;;;;;;2.63;1.40;;;;;;;;;;5014042;28;20060;-79
2023/07/23 14:22:46;;;;;;;2.90;1.77;;;;;;;;;;5013979;28;20058;-79
2023/07/23 14:25:13;;;;;;;2.33;1.67;;;;;;;;;;5013556;28;20065;-79
2023/07/23 14:27:40;;;;;;;2.00;1.60;;;;;;;;;;5014099;28;20414;-79
2023/07/23 14:30:08;;;;;;;2.30;1.73;;;;;;;;;;5013917;28;20356;-79
2023/07/23 14:32:34;;;;;;;2.75;2.00;;;;;;;;;;5026042;28;20487;-79
2023/07/23 14:35:03;;;;;;;2.20;1.80;;;;;;;;;;5033471;28;20418;-79
2023/07/23 14:37:30;;;;;;;2.75;1.73;;;;;;;;;;5033809;28;20406;-79
2023/07/23 14:39:57;;;;;;;2.85;1.65;;;;;;;;;;5033442;28;20057;-79
2023/07/23 14:42:24;;;;;;;2.35;1.80;;;;;;;;;;5033165;28;20053;-80
2023/07/23 14:44:52;;;;;;;2.40;1.80;;;;;;;;;;5033341;28;20060;-78
2023/07/23 14:47:18;;;;;;;2.35;1.80;;;;;;;;;;5032627;28;20053;-78